createdAt,value
2023-03-10T00:01:24.579Z,11.80
2023-03-10T00:03:54.418Z,11.70
2023-03-10T00:06:25.804Z,11.70
2023-03-10T00:08:55.734Z,11.70
2023-03-10T00:11:23.875Z,11.70
2023-03-10T00:13:52.327Z,11.60
2023-03-10T00:16:23.139Z,11.70
2023-03-10T00:18:52.443Z,11.80
2023-03-10T00:21:24.380Z,11.60
2023-03-10T00:23:54.547Z,11.40
2023-03-10T00:26:24.836Z,11.50
2023-03-10T00:28:53.356Z,11.40
2023-03-10T00:31:24.122Z,11.50
2023-03-10T00:33:53.154Z,11.30
2023-03-10T00:36:23.675Z,11.20
2023-03-10T00:38:55.979Z,11.20
2023-03-10T00:41:27.295Z,11.20
2023-03-10T00:43:55.702Z,11.10
2023-03-10T00:46:24.932Z,11.10
2023-03-10T00:48:53.309Z,11.10
2023-03-10T00:51:22.988Z,11.20
2023-03-10T00:53:51.745Z,11.20
2023-03-10T00:56:23.575Z,11.20
2023-03-10T00:58:53.777Z,11.30
2023-03-10T01:01:24.246Z,11.30
2023-03-10T01:03:53.480Z,11.30
2023-03-10T01:06:24.399Z,11.30
2023-03-10T01:08:52.595Z,11.30
2023-03-10T01:11:25.030Z,11.30
2023-03-10T01:13:54.366Z,11.20
2023-03-10T01:16:22.395Z,11.00
2023-03-10T01:18:50.378Z,11.00
2023-03-10T01:21:21.243Z,11.10
2023-03-10T01:23:49.708Z,11.00
2023-03-10T01:26:18.781Z,10.90
2023-03-10T01:28:49.216Z,11.00
2023-03-10T01:31:17.801Z,11.00
2023-03-10T01:33:46.910Z,11.10
2023-03-10T01:36:17.616Z,11.10
2023-03-10T01:38:46.453Z,11.20
2023-03-10T01:41:14.492Z,11.20
2023-03-10T01:43:43.753Z,11.20
2023-03-10T01:46:46.985Z,11.10
2023-03-10T01:49:39.764Z,11.30
2023-03-10T01:52:12.353Z,10.90
2023-03-10T01:54:49.426Z,11.00
2023-03-10T01:57:20.426Z,11.00
2023-03-10T01:59:48.761Z,11.10
2023-03-10T02:02:18.792Z,10.90
2023-03-10T02:04:49.564Z,11.00
2023-03-10T02:07:23.540Z,10.90
2023-03-10T02:09:53.405Z,10.90
2023-03-10T02:12:22.262Z,10.90
2023-03-10T02:14:52.139Z,10.90
2023-03-10T02:17:24.684Z,10.80
2023-03-10T02:20:15.908Z,10.90
2023-03-10T02:22:44.045Z,11.00
2023-03-10T02:25:25.576Z,11.00
2023-03-10T02:27:55.123Z,11.00
2023-03-10T02:30:26.938Z,11.00
2023-03-10T02:33:00.329Z,11.10
2023-03-10T02:35:28.784Z,11.10
2023-03-10T02:37:57.617Z,11.20
2023-03-10T02:40:41.458Z,11.10
2023-03-10T02:43:19.243Z,11.00
2023-03-10T02:45:49.373Z,11.00
2023-03-10T02:48:27.510Z,11.10
2023-03-10T02:50:58.015Z,11.00
2023-03-10T02:53:29.491Z,11.10
2023-03-10T02:55:59.788Z,10.90
2023-03-10T02:58:33.356Z,10.90
2023-03-10T03:01:01.586Z,10.90
2023-03-10T03:03:30.099Z,10.80
2023-03-10T03:05:58.265Z,10.90
2023-03-10T03:08:26.369Z,10.90
2023-03-10T03:10:55.835Z,10.90
2023-03-10T03:13:25.785Z,10.80
2023-03-10T03:15:55.200Z,10.90
2023-03-10T03:18:23.280Z,11.00
2023-03-10T03:20:51.249Z,11.00
2023-03-10T03:23:19.984Z,11.00
2023-03-10T03:25:48.129Z,10.80
2023-03-10T03:28:16.253Z,11.00
2023-03-10T03:30:46.319Z,10.90
2023-03-10T03:33:15.754Z,11.10
2023-03-10T03:35:45.425Z,11.00
2023-03-10T03:38:13.739Z,11.10
2023-03-10T03:40:41.922Z,11.10
2023-03-10T03:43:12.522Z,11.10
2023-03-10T03:45:40.701Z,11.10
2023-03-10T03:48:08.763Z,11.20
2023-03-10T03:50:38.144Z,11.10
2023-03-10T03:53:06.138Z,11.20
2023-03-10T03:55:34.163Z,11.30
2023-03-10T03:58:02.257Z,11.40
2023-03-10T04:00:30.257Z,11.30
2023-03-10T04:02:58.280Z,11.00
2023-03-10T04:05:27.740Z,11.00
2023-03-10T04:07:57.106Z,11.10
2023-03-10T04:10:26.973Z,11.10
2023-03-10T04:12:55.025Z,11.00
2023-03-10T04:15:23.047Z,11.00
2023-03-10T04:17:51.137Z,11.10
2023-03-10T04:20:19.533Z,11.00
2023-03-10T04:22:47.569Z,11.00
2023-03-10T04:25:17.288Z,10.90
2023-03-10T04:27:45.422Z,10.80
2023-03-10T04:30:15.433Z,10.80
2023-03-10T04:32:43.713Z,10.70
2023-03-10T04:35:13.959Z,10.60
2023-03-10T04:37:44.519Z,10.60
2023-03-10T04:40:16.652Z,10.70
2023-03-10T04:42:44.830Z,10.50
2023-03-10T04:45:13.629Z,10.60
2023-03-10T04:47:42.550Z,10.50
2023-03-10T04:50:17.276Z,10.40
2023-03-10T04:52:46.002Z,10.60
2023-03-10T04:55:16.410Z,10.60
2023-03-10T04:57:44.423Z,10.50
2023-03-10T05:00:13.995Z,10.50
2023-03-10T05:02:42.173Z,10.60
2023-03-10T05:05:11.952Z,10.60
2023-03-10T05:07:39.919Z,10.60
2023-03-10T05:10:09.867Z,10.40
2023-03-10T05:12:42.155Z,10.30
2023-03-10T05:15:11.468Z,10.30
2023-03-10T05:17:39.556Z,10.20
2023-03-10T05:20:09.798Z,10.20
2023-03-10T05:22:39.652Z,10.40
2023-03-10T05:25:09.816Z,10.30
2023-03-10T05:27:40.342Z,10.50
2023-03-10T05:30:11.477Z,10.50
2023-03-10T05:32:40.395Z,10.50
2023-03-10T05:35:10.183Z,10.40
2023-03-10T05:37:39.283Z,10.50
2023-03-10T05:40:09.296Z,10.50
2023-03-10T05:42:37.220Z,10.40
2023-03-10T05:45:08.744Z,10.50
2023-03-10T05:47:36.720Z,10.70
2023-03-10T05:50:05.925Z,10.70
2023-03-10T05:52:37.916Z,10.70
2023-03-10T05:55:08.914Z,10.70
2023-03-10T05:57:36.910Z,10.60
2023-03-10T06:00:10.383Z,10.40
2023-03-10T06:02:39.090Z,10.40
2023-03-10T06:05:11.431Z,10.40
2023-03-10T06:07:39.560Z,10.50
2023-03-10T06:10:09.339Z,10.50
2023-03-10T06:12:37.355Z,10.40
2023-03-10T06:15:08.684Z,10.50
2023-03-10T06:17:36.714Z,10.50
2023-03-10T06:20:05.694Z,10.70
2023-03-10T06:22:33.696Z,10.70
2023-03-10T06:25:01.917Z,10.70
2023-03-10T06:27:31.196Z,10.60
2023-03-10T06:29:59.411Z,10.30
2023-03-10T06:32:28.896Z,10.30
2023-03-10T06:34:59.887Z,10.10
2023-03-10T06:37:28.004Z,10.20
2023-03-10T06:39:56.194Z,10.30
2023-03-10T06:42:24.203Z,10.10
2023-03-10T06:44:55.861Z,10.10
2023-03-10T06:47:24.003Z,10.20
2023-03-10T06:49:54.611Z,10.30
2023-03-10T06:52:22.785Z,10.30
2023-03-10T06:54:50.983Z,10.30
2023-03-10T06:57:21.031Z,10.20
2023-03-10T06:59:49.117Z,10.20
2023-03-10T07:02:17.144Z,10.30
2023-03-10T07:04:45.293Z,10.10
2023-03-10T07:07:15.399Z,10.20
2023-03-10T07:09:43.613Z,10.00
2023-03-10T07:12:11.667Z,10.00
2023-03-10T07:14:39.669Z,10.00
2023-03-10T07:17:07.716Z,10.00
2023-03-10T07:19:35.809Z,10.10
2023-03-10T07:22:03.911Z,10.20
2023-03-10T07:24:35.978Z,10.10
2023-03-10T07:27:04.755Z,10.20
2023-03-10T07:29:32.759Z,10.30
2023-03-10T07:32:01.660Z,10.60
2023-03-10T07:34:29.768Z,10.60
2023-03-10T07:36:57.793Z,10.70
2023-03-10T07:39:25.798Z,11.00
2023-03-10T07:41:55.143Z,11.00
2023-03-10T07:44:24.164Z,10.90
2023-03-10T07:46:52.836Z,11.30
2023-03-10T07:49:22.253Z,11.70
2023-03-10T07:51:50.410Z,11.60
2023-03-10T07:54:18.367Z,11.50
2023-03-10T07:56:46.435Z,11.60
2023-03-10T07:59:15.781Z,11.60
2023-03-10T08:01:43.847Z,11.40
2023-03-10T08:04:12.502Z,11.40
2023-03-10T08:06:41.447Z,11.30
2023-03-10T08:09:09.560Z,11.20
2023-03-10T08:11:38.083Z,11.10
2023-03-10T08:14:06.262Z,11.10
2023-03-10T08:16:35.676Z,11.10
2023-03-10T08:19:03.971Z,11.10
2023-03-10T08:21:31.986Z,11.10
2023-03-10T08:23:59.986Z,11.00
2023-03-10T08:26:28.190Z,10.90
2023-03-10T08:28:56.440Z,10.90
2023-03-10T08:31:24.434Z,10.90
2023-03-10T08:33:56.844Z,11.20
2023-03-10T08:36:28.829Z,11.80
2023-03-10T08:38:59.618Z,12.10
2023-03-10T08:41:31.161Z,12.20
2023-03-10T08:44:00.332Z,12.50
2023-03-10T08:46:31.805Z,12.50
2023-03-10T08:49:01.754Z,12.80
2023-03-10T08:51:30.358Z,13.30
2023-03-10T08:53:58.839Z,13.00
2023-03-10T08:56:27.252Z,12.80
2023-03-10T08:58:59.054Z,12.70
2023-03-10T09:01:28.644Z,12.80
2023-03-10T09:03:56.793Z,12.40
2023-03-10T09:06:26.543Z,12.70
2023-03-10T09:08:54.897Z,12.80
2023-03-10T09:11:28.117Z,12.60
2023-03-10T09:13:56.996Z,12.80
2023-03-10T09:16:26.568Z,12.90
2023-03-10T09:18:54.767Z,13.00
2023-03-10T09:21:22.882Z,13.00
2023-03-10T09:23:53.662Z,13.20
2023-03-10T09:26:23.090Z,13.30
2023-03-10T09:28:51.244Z,13.00
2023-03-10T09:31:22.464Z,13.10
2023-03-10T09:33:52.637Z,13.40
2023-03-10T09:36:20.823Z,13.70
2023-03-10T09:38:49.127Z,14.00
2023-03-10T09:41:50.293Z,13.90
2023-03-10T09:44:32.226Z,13.50
2023-03-10T09:47:20.417Z,12.80
2023-03-10T09:50:18.404Z,12.80
2023-03-10T09:52:50.097Z,12.60
2023-03-10T09:55:22.878Z,12.70
2023-03-10T09:57:55.551Z,13.40
2023-03-10T10:00:28.169Z,14.10
2023-03-10T10:03:08.962Z,14.30
2023-03-10T10:05:38.927Z,14.20
2023-03-10T10:08:22.310Z,13.20
2023-03-10T10:10:54.862Z,13.00
2023-03-10T10:13:26.525Z,12.80
2023-03-10T10:16:21.246Z,12.70
2023-03-10T10:18:57.360Z,12.80
2023-03-10T10:21:42.210Z,13.40
2023-03-10T10:24:12.734Z,13.60
2023-03-10T10:26:40.754Z,13.60
2023-03-10T10:29:17.946Z,13.70
2023-03-10T10:32:05.735Z,14.20
2023-03-10T10:34:34.587Z,14.00
2023-03-10T10:37:03.733Z,14.40
2023-03-10T10:39:37.109Z,14.20
2023-03-10T10:42:18.159Z,14.50
2023-03-10T10:44:48.210Z,14.90
2023-03-10T10:47:32.121Z,15.60
2023-03-10T10:50:20.591Z,16.50
2023-03-10T10:52:50.644Z,16.30
2023-03-10T10:55:34.371Z,16.30
2023-03-10T10:58:05.798Z,16.10
2023-03-10T11:00:38.256Z,15.60
2023-03-10T11:03:21.565Z,14.70
2023-03-10T11:05:49.563Z,14.00
2023-03-10T11:08:20.287Z,13.70
2023-03-10T11:10:55.959Z,13.50
2023-03-10T11:13:30.404Z,13.40
2023-03-10T11:16:06.802Z,13.60
2023-03-10T11:18:40.505Z,13.50
2023-03-10T11:21:15.019Z,13.10
2023-03-10T11:23:53.243Z,13.10
2023-03-10T11:26:33.396Z,13.40
2023-03-10T11:29:07.376Z,13.70
2023-03-10T11:31:44.928Z,13.30
2023-03-10T11:34:21.197Z,13.40
2023-03-10T11:37:00.145Z,13.00
2023-03-10T11:39:43.157Z,13.10
2023-03-10T11:42:20.178Z,12.90
2023-03-10T11:45:04.046Z,13.10
2023-03-10T11:47:51.242Z,12.70
2023-03-10T11:50:37.209Z,12.00
2023-03-10T11:53:13.116Z,12.20
2023-03-10T11:55:42.570Z,12.00
2023-03-10T11:58:24.786Z,11.90
2023-03-10T12:00:54.129Z,12.10
2023-03-10T12:03:39.530Z,12.20
2023-03-10T12:06:13.320Z,12.20
2023-03-10T12:08:42.220Z,11.90
2023-03-10T12:11:18.066Z,11.90
2023-03-10T12:13:49.689Z,11.50
2023-03-10T12:16:23.384Z,11.60
2023-03-10T12:18:53.487Z,11.70
2023-03-10T12:21:24.162Z,11.40
2023-03-10T12:23:54.204Z,11.40
2023-03-10T12:27:04.758Z,11.50
2023-03-10T12:29:37.003Z,11.50
2023-03-10T12:32:05.776Z,11.50
2023-03-10T12:34:35.185Z,11.50
2023-03-10T12:37:09.445Z,11.50
2023-03-10T12:39:40.856Z,11.20
2023-03-10T12:42:29.502Z,11.20
2023-03-10T12:45:18.423Z,11.40
2023-03-10T12:47:55.234Z,11.40
2023-03-10T12:50:34.052Z,11.30
2023-03-10T12:53:26.591Z,11.50
2023-03-10T12:56:27.068Z,11.60
2023-03-10T12:59:06.727Z,11.40
2023-03-10T13:01:49.537Z,11.50
2023-03-10T13:04:24.037Z,11.70
2023-03-10T13:07:03.465Z,12.10
2023-03-10T13:09:35.144Z,12.00
2023-03-10T13:12:11.781Z,11.90
2023-03-10T13:14:42.369Z,12.00
2023-03-10T13:17:23.714Z,12.00
2023-03-10T13:20:01.602Z,11.80
2023-03-10T13:22:31.029Z,11.60
2023-03-10T13:25:02.798Z,11.60
2023-03-10T13:27:34.565Z,11.40
2023-03-10T13:30:14.997Z,11.30
2023-03-10T13:32:43.748Z,11.50
2023-03-10T13:35:24.825Z,11.40
2023-03-10T13:38:13.128Z,11.30
2023-03-10T13:40:44.990Z,11.30
2023-03-10T13:43:35.894Z,11.20
2023-03-10T13:46:09.552Z,10.90
2023-03-10T13:48:38.681Z,11.00
2023-03-10T13:51:20.354Z,11.00
2023-03-10T13:53:53.336Z,10.80
2023-03-10T13:56:27.505Z,10.90
2023-03-10T13:58:59.162Z,10.90
2023-03-10T14:01:30.829Z,11.10
2023-03-10T14:04:02.188Z,11.00
2023-03-10T14:06:32.049Z,11.10
2023-03-10T14:09:16.632Z,10.90
2023-03-10T14:11:47.611Z,10.90
2023-03-10T14:14:28.550Z,11.20
2023-03-10T14:16:59.236Z,11.00
2023-03-10T14:19:51.753Z,11.10
2023-03-10T14:22:31.431Z,10.80
2023-03-10T14:25:03.156Z,10.80
2023-03-10T14:27:34.360Z,11.10
2023-03-10T14:30:05.870Z,10.80
2023-03-10T14:32:33.937Z,10.90
2023-03-10T14:35:02.405Z,10.50
2023-03-10T14:37:30.423Z,10.60
2023-03-10T14:39:59.734Z,10.50
2023-03-10T14:42:30.992Z,10.70
2023-03-10T14:45:07.093Z,10.60
2023-03-10T14:47:35.966Z,10.50
2023-03-10T14:50:04.365Z,10.70
2023-03-10T14:52:32.556Z,10.90
2023-03-10T14:55:02.145Z,10.90
2023-03-10T14:57:30.376Z,10.70
2023-03-10T14:59:58.427Z,10.60
2023-03-10T15:02:28.951Z,10.70
2023-03-10T15:04:57.069Z,10.80
2023-03-10T15:07:25.268Z,10.90
2023-03-10T15:10:05.357Z,10.60
2023-03-10T15:12:40.958Z,10.50
2023-03-10T15:15:17.128Z,10.40
2023-03-10T15:17:45.741Z,10.40
2023-03-10T15:20:17.802Z,10.40
2023-03-10T15:22:46.887Z,10.30
2023-03-10T15:25:16.796Z,10.30
2023-03-10T15:27:48.312Z,10.40
2023-03-10T15:30:21.229Z,10.60
2023-03-10T15:32:49.793Z,10.40
2023-03-10T15:35:18.213Z,10.20
2023-03-10T15:37:46.460Z,10.40
2023-03-10T15:40:18.641Z,10.30
2023-03-10T15:42:48.974Z,10.00
2023-03-10T15:45:19.211Z,10.20
2023-03-10T15:47:48.238Z,10.10
2023-03-10T15:50:19.656Z,9.80
2023-03-10T15:52:48.675Z,10.10
2023-03-10T15:55:17.357Z,9.90
2023-03-10T15:57:49.943Z,9.80
2023-03-10T16:00:20.540Z,9.70
2023-03-10T16:02:50.476Z,9.70
2023-03-10T16:05:19.542Z,9.70
2023-03-10T16:07:48.477Z,9.80
2023-03-10T16:10:20.888Z,10.00
2023-03-10T16:12:50.215Z,9.80
2023-03-10T16:15:18.631Z,10.00
2023-03-10T16:17:46.821Z,9.70
2023-03-10T16:20:16.951Z,9.50
2023-03-10T16:22:44.979Z,9.60
2023-03-10T16:25:15.685Z,9.60
2023-03-10T16:27:45.213Z,9.40
2023-03-10T16:30:19.704Z,9.40
2023-03-10T16:32:49.330Z,9.30
2023-03-10T16:35:19.125Z,9.30
2023-03-10T16:37:47.115Z,9.10
2023-03-10T16:40:16.324Z,9.20
2023-03-10T16:42:46.216Z,9.10
2023-03-10T16:45:16.215Z,9.40
2023-03-10T16:47:46.097Z,9.10
2023-03-10T16:50:14.358Z,9.20
2023-03-10T16:52:43.650Z,9.10
2023-03-10T16:55:17.276Z,8.90
2023-03-10T16:57:46.349Z,8.90
2023-03-10T17:00:20.947Z,8.80
2023-03-10T17:02:49.175Z,8.70
2023-03-10T17:05:18.239Z,8.60
2023-03-10T17:07:55.433Z,8.60
2023-03-10T17:10:26.629Z,8.50
2023-03-10T17:12:54.684Z,8.50
2023-03-10T17:15:24.657Z,8.40
2023-03-10T17:17:52.895Z,8.50
2023-03-10T17:20:21.447Z,8.30
2023-03-10T17:22:49.456Z,8.40
2023-03-10T17:25:17.549Z,8.40
2023-03-10T17:27:45.576Z,8.60
2023-03-10T17:30:17.853Z,8.40
2023-03-10T17:32:49.395Z,8.50
2023-03-10T17:35:17.631Z,8.00
2023-03-10T17:37:46.433Z,7.90
2023-03-10T17:40:17.251Z,7.90
2023-03-10T17:42:45.437Z,8.30
2023-03-10T17:45:13.718Z,8.10
2023-03-10T17:47:41.828Z,8.10
2023-03-10T17:50:12.828Z,7.90
2023-03-10T17:52:40.862Z,7.80
2023-03-10T17:55:09.789Z,7.70
2023-03-10T17:57:40.358Z,7.90
2023-03-10T18:00:11.514Z,8.10
2023-03-10T18:02:39.810Z,7.50
2023-03-10T18:05:09.080Z,7.40
2023-03-10T18:07:38.468Z,7.20
2023-03-10T18:10:08.702Z,7.10
2023-03-10T18:12:36.681Z,7.00
2023-03-10T18:15:05.643Z,6.90
2023-03-10T18:17:33.701Z,7.20
2023-03-10T18:20:02.039Z,6.60
2023-03-10T18:22:30.019Z,5.90
2023-03-10T18:25:02.426Z,5.60
2023-03-10T18:27:32.248Z,5.40
2023-03-10T18:30:00.797Z,5.50
2023-03-10T18:32:29.429Z,5.60
2023-03-10T18:34:59.239Z,5.60
2023-03-10T18:37:27.311Z,5.60
2023-03-10T18:39:55.407Z,5.30
2023-03-10T18:42:26.357Z,5.40
2023-03-10T18:44:54.633Z,5.40
2023-03-10T18:47:22.964Z,5.40
2023-03-10T18:49:51.792Z,5.40
2023-03-10T18:52:20.068Z,5.20
2023-03-10T18:54:49.344Z,5.10
2023-03-10T18:57:17.404Z,5.30
2023-03-10T18:59:47.130Z,4.90
2023-03-10T19:02:16.717Z,5.10
2023-03-10T19:04:47.659Z,4.80
2023-03-10T19:07:17.384Z,4.60
2023-03-10T19:09:45.372Z,4.50
2023-03-10T19:12:13.384Z,4.40
2023-03-10T19:14:41.375Z,4.20
2023-03-10T19:17:10.692Z,4.30
2023-03-10T19:19:38.734Z,4.10
2023-03-10T19:22:06.772Z,3.80
2023-03-10T19:24:34.827Z,3.40
2023-03-10T19:27:03.996Z,3.80
2023-03-10T19:29:32.141Z,3.70
2023-03-10T19:32:00.206Z,3.40
2023-03-10T19:34:29.717Z,3.40
2023-03-10T19:36:57.783Z,3.30
2023-03-10T19:39:25.921Z,3.40
2023-03-10T19:41:53.975Z,3.50
2023-03-10T19:44:22.319Z,3.40
2023-03-10T19:46:50.437Z,3.40
2023-03-10T19:49:18.586Z,3.20
2023-03-10T19:51:48.049Z,3.20
2023-03-10T19:54:16.039Z,3.30
2023-03-10T19:56:44.079Z,3.30
2023-03-10T19:59:12.041Z,3.30
2023-03-10T20:01:42.068Z,3.40
2023-03-10T20:04:11.704Z,3.30
2023-03-10T20:06:39.700Z,3.20
2023-03-10T20:09:10.627Z,3.20
2023-03-10T20:11:39.356Z,3.20
2023-03-10T20:14:08.239Z,3.20
2023-03-10T20:16:36.380Z,3.20
2023-03-10T20:19:04.933Z,3.30
2023-03-10T20:21:32.956Z,3.30
2023-03-10T20:24:00.928Z,3.20
2023-03-10T20:26:30.376Z,3.30
2023-03-10T20:28:59.865Z,3.60
2023-03-10T20:31:33.847Z,3.60
2023-03-10T20:34:02.106Z,3.50
2023-03-10T20:36:31.504Z,3.10
2023-03-10T20:39:00.707Z,3.00
2023-03-10T20:41:30.248Z,3.00
2023-03-10T20:43:58.390Z,3.10
2023-03-10T20:46:28.489Z,3.10
2023-03-10T20:48:58.241Z,3.00
2023-03-10T20:51:28.102Z,3.00
2023-03-10T20:53:57.405Z,3.00
2023-03-10T20:56:31.311Z,3.00
2023-03-10T20:59:04.025Z,3.20
2023-03-10T21:01:32.332Z,3.20
2023-03-10T21:04:00.460Z,3.30
2023-03-10T21:06:29.240Z,3.20
2023-03-10T21:08:57.321Z,3.20
2023-03-10T21:11:25.556Z,3.00
2023-03-10T21:13:53.644Z,2.70
2023-03-10T21:16:23.202Z,2.70
2023-03-10T21:18:51.350Z,2.80
2023-03-10T21:21:19.398Z,2.80
2023-03-10T21:23:47.760Z,2.80
2023-03-10T21:26:17.966Z,2.70
2023-03-10T21:28:46.312Z,2.80
2023-03-10T21:31:15.141Z,2.80
2023-03-10T21:33:44.530Z,3.00
2023-03-10T21:36:15.982Z,3.00
2023-03-10T21:38:44.018Z,3.30
2023-03-10T21:41:13.368Z,3.10
2023-03-10T21:43:41.387Z,2.80
2023-03-10T21:46:09.549Z,2.90
2023-03-10T21:48:37.627Z,3.10
2023-03-10T21:51:09.854Z,3.10
2023-03-10T21:53:38.074Z,3.00
2023-03-10T21:56:10.200Z,3.20
2023-03-10T21:58:38.355Z,2.90
2023-03-10T22:01:08.185Z,3.00
2023-03-10T22:03:36.465Z,3.10
2023-03-10T22:06:06.373Z,3.10
2023-03-10T22:08:35.939Z,3.10
2023-03-10T22:11:06.224Z,3.10
2023-03-10T22:13:35.717Z,3.00
2023-03-10T22:16:05.990Z,3.00
2023-03-10T22:18:35.268Z,2.80
2023-03-10T22:21:03.259Z,2.80
2023-03-10T22:23:32.562Z,3.10
2023-03-10T22:26:00.848Z,3.10
2023-03-10T22:28:28.899Z,3.40
2023-03-10T22:30:58.069Z,3.80
2023-03-10T22:33:27.036Z,3.60
2023-03-10T22:35:55.096Z,3.50
2023-03-10T22:38:23.620Z,3.60
2023-03-10T22:40:52.987Z,3.20
2023-03-10T22:43:20.987Z,3.00
2023-03-10T22:45:49.070Z,3.10
2023-03-10T22:48:17.102Z,3.10
2023-03-10T22:50:46.742Z,3.30
2023-03-10T22:53:17.950Z,3.20
2023-03-10T22:55:47.834Z,3.10
2023-03-10T22:58:17.125Z,3.30
2023-03-10T23:00:47.627Z,2.90
2023-03-10T23:03:17.923Z,3.10
2023-03-10T23:05:47.243Z,3.20
2023-03-10T23:08:18.060Z,3.20
2023-03-10T23:10:46.377Z,3.00
2023-03-10T23:13:18.526Z,2.90
2023-03-10T23:15:48.756Z,2.80
2023-03-10T23:18:18.011Z,2.60
2023-03-10T23:20:49.011Z,2.60
2023-03-10T23:23:18.350Z,2.80
2023-03-10T23:25:48.711Z,2.80
2023-03-10T23:28:19.456Z,2.90
2023-03-10T23:30:50.240Z,2.70
2023-03-10T23:33:21.553Z,2.70
2023-03-10T23:35:54.637Z,2.90
2023-03-10T23:38:24.998Z,2.80
2023-03-10T23:40:55.206Z,2.90
2023-03-10T23:43:24.906Z,2.70
2023-03-10T23:45:53.308Z,2.70
2023-03-10T23:48:24.736Z,2.70
2023-03-10T23:50:53.048Z,2.70
2023-03-10T23:53:22.727Z,2.80
2023-03-10T23:55:51.215Z,3.00
2023-03-10T23:58:21.303Z,3.10
